createdAt,value
2018-01-10T00:00:00.960Z,83.80
2018-01-10T00:02:29.305Z,83.57
2018-01-10T00:04:57.657Z,83.46
2018-01-10T00:07:26.822Z,83.23
2018-01-10T00:09:55.174Z,83.27
2018-01-10T00:12:23.552Z,83.10
2018-01-10T00:14:51.907Z,83.30
2018-01-10T00:17:21.049Z,83.37
2018-01-10T00:19:49.429Z,84.49
2018-01-10T00:22:17.775Z,84.87
2018-01-10T00:24:46.153Z,84.79
2018-01-10T00:27:14.500Z,84.55
2018-01-10T00:29:43.648Z,84.52
2018-01-10T00:32:12.015Z,85.26
2018-01-10T00:34:40.375Z,85.79
2018-01-10T00:37:08.746Z,86.08
2018-01-10T00:39:37.859Z,86.16
2018-01-10T00:42:06.238Z,86.24
2018-01-10T00:44:34.576Z,86.43
2018-01-10T00:47:02.943Z,86.60
2018-01-10T00:49:31.286Z,86.62
2018-01-10T00:51:59.666Z,86.71
2018-01-10T00:54:27.999Z,86.96
2018-01-10T00:56:57.154Z,87.14
2018-01-10T00:59:25.482Z,87.25
2018-01-10T01:01:53.850Z,87.43
2018-01-10T01:04:22.978Z,87.66
2018-01-10T01:06:51.329Z,87.64
2018-01-10T01:09:19.690Z,87.70
2018-01-10T01:11:48.888Z,87.58
2018-01-10T01:14:17.218Z,87.54
2018-01-10T01:16:45.598Z,87.56
2018-01-10T01:19:13.943Z,87.68
2018-01-10T01:21:42.318Z,87.77
2018-01-10T01:24:10.714Z,87.85
2018-01-10T01:26:39.066Z,87.87
2018-01-10T01:29:08.181Z,87.85
2018-01-10T01:31:36.546Z,87.85
2018-01-10T01:34:05.650Z,87.91
2018-01-10T01:36:33.990Z,87.92
2018-01-10T01:39:02.363Z,87.91
2018-01-10T01:41:30.708Z,88.06
2018-01-10T01:43:59.074Z,88.25
2018-01-10T01:46:27.402Z,88.33
2018-01-10T01:48:55.731Z,88.45
2018-01-10T01:51:24.112Z,88.42
2018-01-10T01:53:52.445Z,88.54
2018-01-10T01:56:21.602Z,88.61
2018-01-10T01:58:49.929Z,88.61
2018-01-10T02:01:19.063Z,88.66
2018-01-10T02:03:47.454Z,88.90
2018-01-10T02:06:15.795Z,88.99
2018-01-10T02:08:44.156Z,88.92
2018-01-10T02:11:13.277Z,88.99
2018-01-10T02:13:41.654Z,89.07
2018-01-10T02:16:10.058Z,89.12
2018-01-10T02:18:38.398Z,89.08
2018-01-10T02:21:06.790Z,89.31
2018-01-10T02:23:35.125Z,89.33
2018-01-10T02:26:03.467Z,89.40
2018-01-10T02:28:31.833Z,89.41
2018-01-10T02:31:00.162Z,89.44
2018-01-10T02:33:28.530Z,89.42
2018-01-10T02:35:56.858Z,89.61
2018-01-10T02:38:25.186Z,89.65
2018-01-10T02:40:53.545Z,89.77
2018-01-10T02:43:21.865Z,89.85
2018-01-10T02:45:51.005Z,89.89
2018-01-10T02:48:19.337Z,89.94
2018-01-10T02:50:47.722Z,89.91
2018-01-10T02:53:16.126Z,89.88
2018-01-10T02:55:44.470Z,89.84
2018-01-10T02:58:13.606Z,89.84
2018-01-10T03:00:41.970Z,89.87
2018-01-10T03:03:10.301Z,89.99
2018-01-10T03:05:38.674Z,89.73
2018-01-10T03:08:06.998Z,89.85
2018-01-10T03:10:35.331Z,90.07
2018-01-10T03:13:03.694Z,90.31
2018-01-10T03:15:32.025Z,90.11
2018-01-10T03:18:00.378Z,90.08
2018-01-10T03:20:29.477Z,90.20
2018-01-10T03:22:58.602Z,90.29
2018-01-10T03:25:26.946Z,90.60
2018-01-10T03:27:56.073Z,90.56
2018-01-10T03:30:24.438Z,90.57
2018-01-10T03:32:52.801Z,90.45
2018-01-10T03:35:21.917Z,90.44
2018-01-10T03:37:50.284Z,90.45
2018-01-10T03:40:19.372Z,90.48
2018-01-10T03:42:48.505Z,90.43
2018-01-10T03:45:16.888Z,90.46
2018-01-10T03:47:45.233Z,90.46
2018-01-10T03:50:14.373Z,90.67
2018-01-10T03:52:42.701Z,90.81
2018-01-10T03:55:11.814Z,90.80
2018-01-10T03:57:40.353Z,90.77
2018-01-10T04:00:08.669Z,90.84
2018-01-10T04:02:36.997Z,90.81
2018-01-10T04:05:05.417Z,90.86
2018-01-10T04:07:34.553Z,90.89
2018-01-10T04:10:02.946Z,90.88
2018-01-10T04:12:31.277Z,90.89
2018-01-10T04:14:59.693Z,91.05
2018-01-10T04:17:28.041Z,91.13
2018-01-10T04:19:56.406Z,91.09
2018-01-10T04:22:24.796Z,91.12
2018-01-10T04:24:53.221Z,91.14
2018-01-10T04:27:21.553Z,91.16
2018-01-10T04:29:49.945Z,91.15
2018-01-10T04:32:18.270Z,91.20
2018-01-10T04:34:46.615Z,91.23
2018-01-10T04:37:14.992Z,91.25
2018-01-10T04:39:43.316Z,91.27
2018-01-10T04:42:12.448Z,91.28
2018-01-10T04:44:40.773Z,91.29
2018-01-10T04:47:09.172Z,91.16
2018-01-10T04:49:38.308Z,91.15
2018-01-10T04:52:06.713Z,91.07
2018-01-10T04:54:35.045Z,91.13
2018-01-10T04:57:04.180Z,91.26
2018-01-10T04:59:33.376Z,91.23
2018-01-10T05:02:01.753Z,91.30
2018-01-10T05:04:30.085Z,91.28
2018-01-10T05:06:58.456Z,91.25
2018-01-10T05:09:27.596Z,91.29
2018-01-10T05:11:55.932Z,91.33
2018-01-10T05:14:24.272Z,91.17
2018-01-10T05:16:52.640Z,91.23
2018-01-10T05:19:20.992Z,91.15
2018-01-10T05:21:49.352Z,91.11
2018-01-10T05:24:17.716Z,91.14
2018-01-10T05:26:46.048Z,91.08
2018-01-10T05:29:14.414Z,91.10
2018-01-10T05:31:42.745Z,91.21
2018-01-10T05:34:11.136Z,91.09
2018-01-10T05:36:39.466Z,91.12
2018-01-10T05:39:07.805Z,91.05
2018-01-10T05:41:36.180Z,91.06
2018-01-10T05:44:04.516Z,91.10
2018-01-10T05:46:32.904Z,91.08
2018-01-10T05:49:02.003Z,91.10
2018-01-10T05:51:31.136Z,91.15
2018-01-10T05:53:59.464Z,91.21
2018-01-10T05:56:28.573Z,91.17
2018-01-10T05:58:57.697Z,91.13
2018-01-10T06:01:26.100Z,91.11
2018-01-10T06:03:54.479Z,91.12
2018-01-10T06:06:22.839Z,91.10
2018-01-10T06:08:51.171Z,91.15
2018-01-10T06:11:20.308Z,91.19
2018-01-10T06:13:48.686Z,91.17
2018-01-10T06:16:17.065Z,91.17
2018-01-10T06:18:45.376Z,91.15
2018-01-10T06:21:13.752Z,91.21
2018-01-10T06:23:42.091Z,91.19
2018-01-10T06:26:10.439Z,91.19
2018-01-10T06:28:39.555Z,91.18
2018-01-10T06:31:07.944Z,91.26
2018-01-10T06:33:36.308Z,91.25
2018-01-10T06:36:04.676Z,91.26
2018-01-10T06:38:33.064Z,91.27
2018-01-10T06:41:01.452Z,91.27
2018-01-10T06:43:29.824Z,91.31
2018-01-10T06:45:58.156Z,91.29
2018-01-10T06:48:26.552Z,91.29
2018-01-10T06:50:55.659Z,91.30
2018-01-10T06:53:24.795Z,91.46
2018-01-10T06:55:53.156Z,91.46
2018-01-10T06:58:21.508Z,91.53
2018-01-10T07:00:50.663Z,91.57
2018-01-10T07:03:19.003Z,91.60
2018-01-10T07:05:47.336Z,91.56
2018-01-10T07:08:15.707Z,91.55
2018-01-10T07:10:44.075Z,91.70
2018-01-10T07:13:12.451Z,91.61
2018-01-10T07:15:40.828Z,91.64
2018-01-10T07:18:09.219Z,91.65
2018-01-10T07:20:37.595Z,91.67
2018-01-10T07:23:05.935Z,91.63
2018-01-10T07:25:34.331Z,91.67
2018-01-10T07:28:02.675Z,91.65
2018-01-10T07:30:31.012Z,91.66
2018-01-10T07:32:59.392Z,91.57
2018-01-10T07:35:27.767Z,91.66
2018-01-10T07:37:56.141Z,91.70
2018-01-10T07:40:24.475Z,91.71
2018-01-10T07:42:52.807Z,91.71
2018-01-10T07:45:21.173Z,91.39
2018-01-10T07:47:49.515Z,91.61
2018-01-10T07:50:17.900Z,91.57
2018-01-10T07:52:46.259Z,91.61
2018-01-10T07:55:14.583Z,91.47
2018-01-10T07:57:42.941Z,91.54
2018-01-10T08:00:11.315Z,91.58
2018-01-10T08:02:39.654Z,91.57
2018-01-10T08:05:08.790Z,91.59
2018-01-10T08:07:37.127Z,91.54
2018-01-10T08:10:06.264Z,91.53
2018-01-10T08:12:34.606Z,91.53
2018-01-10T08:15:02.940Z,91.64
2018-01-10T08:17:31.303Z,91.64
2018-01-10T08:19:59.650Z,91.62
2018-01-10T08:22:28.015Z,91.52
2018-01-10T08:24:56.342Z,91.58
2018-01-10T08:27:24.710Z,91.42
2018-01-10T08:29:53.076Z,91.41
2018-01-10T08:32:21.416Z,91.39
2018-01-10T08:34:50.519Z,91.30
2018-01-10T08:37:18.904Z,91.25
2018-01-10T08:39:47.253Z,91.25
2018-01-10T08:42:15.622Z,91.18
2018-01-10T08:44:43.962Z,91.07
2018-01-10T08:47:12.337Z,91.07
2018-01-10T08:49:40.668Z,90.95
2018-01-10T08:52:09.814Z,90.79
2018-01-10T08:54:38.143Z,90.79
2018-01-10T08:57:07.235Z,90.73
2018-01-10T08:59:35.609Z,90.57
2018-01-10T09:02:03.946Z,90.52
2018-01-10T09:04:32.266Z,90.43
2018-01-10T09:07:00.644Z,90.35
2018-01-10T09:09:29.739Z,90.27
2018-01-10T09:11:58.874Z,89.54
2018-01-10T09:14:27.250Z,89.85
2018-01-10T09:16:55.585Z,89.48
2018-01-10T09:19:23.958Z,89.37
2018-01-10T09:21:52.291Z,89.09
2018-01-10T09:24:20.660Z,88.85
2018-01-10T09:26:48.980Z,88.83
2018-01-10T09:29:17.310Z,88.62
2018-01-10T09:31:45.666Z,87.72
2018-01-10T09:34:14.046Z,87.31
2018-01-10T09:36:42.398Z,86.56
2018-01-10T09:39:10.732Z,86.10
2018-01-10T09:41:39.092Z,85.41
2018-01-10T09:44:07.470Z,84.71
2018-01-10T09:46:35.796Z,84.28
2018-01-10T09:49:04.135Z,84.03
2018-01-10T09:51:32.506Z,83.87
2018-01-10T09:54:00.846Z,83.27
2018-01-10T09:56:29.222Z,83.04
2018-01-10T09:58:57.634Z,82.82
2018-01-10T10:01:26.015Z,82.65
2018-01-10T10:03:54.338Z,82.41
2018-01-10T10:06:22.662Z,82.15
2018-01-10T10:08:51.814Z,81.71
2018-01-10T10:11:20.164Z,80.16
2018-01-10T10:13:49.294Z,79.57
2018-01-10T10:16:17.629Z,79.81
2018-01-10T10:18:46.006Z,79.76
2018-01-10T10:21:14.341Z,79.47
2018-01-10T10:23:42.670Z,79.94
2018-01-10T10:26:11.048Z,79.88
2018-01-10T10:28:39.392Z,79.38
2018-01-10T10:31:08.539Z,79.08
2018-01-10T10:33:36.877Z,78.87
2018-01-10T10:36:05.250Z,78.20
2018-01-10T10:38:33.570Z,77.76
2018-01-10T10:41:01.949Z,78.10
2018-01-10T10:43:30.293Z,78.68
2018-01-10T10:45:58.622Z,79.27
2018-01-10T10:48:26.990Z,79.07
2018-01-10T10:50:55.376Z,78.92
2018-01-10T10:53:23.738Z,78.89
2018-01-10T10:55:52.130Z,78.93
2018-01-10T10:58:20.574Z,78.83
2018-01-10T11:00:48.906Z,78.42
2018-01-10T11:03:18.066Z,78.18
2018-01-10T11:05:46.400Z,77.38
2018-01-10T11:08:15.650Z,77.38
2018-01-10T11:10:43.995Z,76.98
2018-01-10T11:13:12.313Z,76.84
2018-01-10T11:15:40.725Z,76.22
2018-01-10T11:18:09.045Z,76.62
2018-01-10T11:20:37.429Z,76.99
2018-01-10T11:23:05.789Z,76.79
2018-01-10T11:25:34.245Z,76.45
2018-01-10T11:31:08.825Z,75.99
2018-01-10T11:33:37.165Z,75.33
2018-01-10T11:36:06.318Z,75.79
2018-01-10T11:38:34.649Z,76.01
2018-01-10T11:41:02.986Z,76.02
2018-01-10T11:43:31.353Z,76.08
2018-01-10T11:45:59.697Z,76.04
2018-01-10T11:48:28.069Z,75.78
2018-01-10T11:50:56.446Z,75.58
2018-01-10T11:53:24.785Z,75.43
2018-01-10T11:55:53.890Z,75.09
2018-01-10T11:58:23.037Z,74.67
2018-01-10T12:00:51.377Z,74.30
2018-01-10T12:03:19.737Z,74.05
2018-01-10T12:05:48.880Z,74.11
2018-01-10T12:08:17.261Z,74.51
2018-01-10T12:10:45.853Z,74.69
2018-01-10T12:13:14.232Z,75.57
2018-01-10T12:15:42.557Z,76.11
2018-01-10T12:18:11.671Z,76.61
2018-01-10T12:20:40.029Z,76.77
2018-01-10T12:23:09.181Z,76.72
2018-01-10T12:25:37.509Z,76.57
2018-01-10T12:28:06.601Z,76.70
2018-01-10T12:30:35.749Z,76.93
2018-01-10T12:33:04.725Z,76.85
2018-01-10T12:35:33.057Z,76.73
2018-01-10T12:38:02.182Z,76.54
2018-01-10T12:40:30.538Z,76.21
2018-01-10T12:42:58.898Z,75.38
2018-01-10T12:45:27.270Z,75.13
2018-01-10T12:47:55.661Z,75.13
2018-01-10T12:50:24.756Z,75.68
2018-01-10T12:52:53.897Z,75.91
2018-01-10T12:55:22.260Z,76.16
2018-01-10T12:57:50.594Z,76.71
2018-01-10T13:00:18.956Z,77.11
2018-01-10T13:02:47.312Z,77.12
2018-01-10T13:05:15.686Z,77.10
2018-01-10T13:07:44.029Z,77.02
2018-01-10T13:10:13.124Z,77.03
2018-01-10T13:12:42.336Z,77.07
2018-01-10T13:15:10.751Z,77.08
2018-01-10T13:17:39.120Z,77.19
2018-01-10T13:20:07.470Z,77.36
2018-01-10T13:22:35.849Z,77.75
2018-01-10T13:25:04.189Z,78.11
2018-01-10T13:27:32.526Z,78.49
2018-01-10T13:30:00.906Z,78.69
2018-01-10T13:32:29.242Z,78.86
2018-01-10T13:34:58.376Z,79.01
2018-01-10T13:37:26.747Z,79.08
2018-01-10T13:39:55.088Z,79.21
2018-01-10T13:42:24.240Z,79.34
2018-01-10T13:44:52.581Z,79.53
2018-01-10T13:47:21.382Z,79.73
2018-01-10T13:49:49.729Z,79.84
2018-01-10T13:52:18.828Z,79.90
2018-01-10T13:54:47.960Z,80.06
2018-01-10T13:57:16.360Z,80.09
2018-01-10T13:59:44.708Z,80.19
2018-01-10T14:02:13.064Z,80.26
2018-01-10T14:04:42.188Z,80.65
2018-01-10T14:07:10.509Z,80.83
2018-01-10T14:09:38.872Z,80.87
2018-01-10T14:12:07.218Z,81.19
2018-01-10T14:14:35.608Z,81.18
2018-01-10T14:17:03.944Z,81.68
2018-01-10T14:19:32.996Z,81.80
2018-01-10T14:22:01.348Z,81.83
2018-01-10T14:24:29.744Z,81.83
2018-01-10T14:26:58.073Z,81.88
2018-01-10T14:29:27.224Z,81.95
2018-01-10T14:31:55.604Z,81.98
2018-01-10T14:34:23.948Z,82.15
2018-01-10T14:36:52.276Z,82.27
2018-01-10T14:39:20.644Z,82.45
2018-01-10T14:41:48.988Z,82.44
2018-01-10T14:44:17.361Z,82.50
2018-01-10T14:46:45.692Z,82.73
2018-01-10T14:49:14.051Z,83.15
2018-01-10T14:51:42.379Z,83.27
2018-01-10T14:54:10.779Z,83.29
2018-01-10T14:56:39.872Z,83.28
2018-01-10T14:59:08.253Z,83.31
2018-01-10T15:01:36.592Z,83.35
2018-01-10T15:04:05.692Z,83.84
2018-01-10T15:06:34.843Z,84.07
2018-01-10T15:09:03.179Z,84.12
2018-01-10T15:11:31.503Z,84.39
2018-01-10T15:14:00.588Z,84.77
2018-01-10T15:16:28.941Z,84.79
2018-01-10T15:18:57.312Z,84.82
2018-01-10T15:21:25.652Z,84.80
2018-01-10T15:23:54.032Z,84.81
2018-01-10T15:26:23.133Z,84.82
2018-01-10T15:28:52.273Z,84.87
2018-01-10T15:31:20.619Z,85.69
2018-01-10T15:33:49.756Z,86.45
2018-01-10T15:36:18.101Z,86.74
2018-01-10T15:38:46.475Z,86.65
2018-01-10T15:41:14.823Z,86.69
2018-01-10T15:43:44.099Z,86.69
2018-01-10T15:46:12.529Z,86.62
2018-01-10T15:48:40.924Z,86.77
2018-01-10T15:51:09.980Z,86.78
2018-01-10T15:53:38.507Z,87.33
2018-01-10T15:56:07.120Z,87.16
2018-01-10T15:58:35.799Z,87.36
2018-01-10T16:01:04.196Z,87.36
2018-01-10T16:03:32.611Z,87.41
2018-01-10T16:06:00.984Z,87.53
2018-01-10T16:08:30.353Z,87.57
2018-01-10T16:10:59.499Z,87.56
2018-01-10T16:13:27.871Z,87.58
2018-01-10T16:15:57.492Z,87.54
2018-01-10T16:18:25.843Z,87.60
2018-01-10T16:20:56.949Z,87.60
2018-01-10T16:23:25.295Z,87.57
2018-01-10T16:25:53.653Z,87.59
2018-01-10T16:28:22.061Z,87.59
2018-01-10T16:30:50.404Z,87.71
2018-01-10T16:33:18.762Z,87.63
2018-01-10T16:35:47.912Z,87.69
2018-01-10T16:38:16.270Z,87.63
2018-01-10T16:40:45.444Z,87.64
2018-01-10T16:43:14.616Z,87.59
2018-01-10T16:45:43.334Z,87.85
2018-01-10T16:48:11.794Z,88.00
2018-01-10T16:50:40.911Z,87.89
2018-01-10T16:53:09.301Z,88.03
2018-01-10T16:55:37.682Z,87.83
2018-01-10T16:58:07.551Z,88.08
2018-01-10T17:00:35.891Z,87.93
2018-01-10T17:03:04.275Z,87.82
2018-01-10T17:05:32.619Z,88.00
2018-01-10T17:08:00.975Z,87.75
2018-01-10T17:10:30.121Z,87.73
2018-01-10T17:12:58.900Z,87.91
2018-01-10T17:15:27.251Z,87.75
2018-01-10T17:17:56.371Z,87.66
2018-01-10T17:20:24.755Z,87.62
2018-01-10T17:22:53.177Z,87.62
2018-01-10T17:25:21.594Z,87.57
2018-01-10T17:27:49.974Z,87.58
2018-01-10T17:30:18.298Z,87.57
2018-01-10T17:32:47.387Z,87.55
2018-01-10T17:35:16.286Z,87.54
2018-01-10T17:37:44.770Z,87.62
2018-01-10T17:40:13.574Z,87.63
2018-01-10T17:42:43.718Z,87.66
2018-01-10T17:45:13.110Z,87.67
2018-01-10T17:47:41.647Z,87.66
2018-01-10T17:50:11.154Z,87.72
2018-01-10T17:52:39.548Z,87.76
2018-01-10T17:55:10.011Z,87.82
2018-01-10T17:57:42.830Z,87.88
2018-01-10T18:00:13.180Z,87.94
2018-01-10T18:02:42.511Z,88.67
2018-01-10T18:05:11.738Z,89.08
2018-01-10T18:07:40.102Z,89.08
2018-01-10T19:25:10.527Z,90.15
2018-01-10T19:27:38.943Z,90.07
2018-01-10T19:30:07.476Z,90.09
2018-01-10T19:32:36.604Z,90.11
2018-01-10T19:35:05.733Z,90.13
2018-01-10T19:37:37.686Z,90.15
2018-01-10T19:40:06.064Z,90.16
2018-01-10T19:42:34.902Z,90.20
2018-01-10T19:45:03.374Z,90.21
2018-01-10T19:47:33.338Z,90.23
2018-01-10T19:50:01.794Z,90.24
2018-01-10T19:52:30.181Z,90.23
2018-01-10T19:54:59.345Z,90.18
2018-01-10T19:57:27.711Z,90.18
2018-01-10T19:59:56.250Z,90.21
2018-01-10T20:02:24.610Z,90.21
2018-01-10T20:04:53.026Z,90.19
2018-01-10T20:07:21.685Z,90.19
2018-01-10T20:09:50.043Z,90.22
2018-01-10T20:12:19.983Z,90.21
2018-01-10T20:14:48.385Z,90.21
2018-01-10T20:17:19.589Z,90.20
2018-01-10T20:19:47.945Z,90.21
2018-01-10T20:22:16.377Z,90.21
2018-01-10T20:24:44.985Z,90.20
2018-01-10T20:27:14.888Z,90.20
2018-01-10T20:29:44.734Z,90.20
2018-01-10T20:32:13.097Z,90.20
2018-01-10T20:34:42.224Z,90.22
2018-01-10T20:37:10.569Z,90.21
2018-01-10T20:39:39.125Z,90.20
2018-01-10T20:42:08.714Z,90.20
2018-01-10T20:44:37.113Z,90.18
2018-01-10T20:47:06.285Z,90.18
2018-01-10T20:49:34.669Z,90.16
2018-01-10T20:52:03.064Z,90.14
2018-01-10T20:54:32.182Z,89.81
2018-01-10T20:57:01.346Z,89.77
2018-01-10T20:59:29.710Z,89.75
2018-01-10T21:01:58.111Z,89.25
2018-01-10T21:04:26.485Z,89.29
2018-01-10T21:06:54.837Z,89.32
2018-01-10T21:09:23.252Z,89.32
2018-01-10T21:11:51.677Z,89.33
2018-01-10T21:14:20.038Z,89.17
2018-01-10T21:16:49.307Z,89.18
2018-01-10T21:19:17.689Z,89.13
2018-01-10T21:21:46.801Z,89.18
2018-01-10T21:24:15.953Z,88.97
2018-01-10T21:26:44.305Z,88.82
2018-01-10T21:29:12.686Z,88.82
2018-01-10T21:31:41.904Z,88.84
2018-01-10T21:34:10.957Z,88.85
2018-01-10T21:36:39.757Z,88.84
2018-01-10T21:39:08.098Z,88.86
2018-01-10T21:41:37.284Z,88.91
2018-01-10T21:44:05.644Z,88.89
2018-01-10T21:46:34.013Z,88.91
2018-01-10T21:49:02.397Z,88.89
2018-01-10T21:51:30.741Z,89.05
2018-01-10T21:53:59.147Z,89.47
2018-01-10T21:56:27.511Z,89.33
2018-01-10T21:58:55.868Z,89.29
2018-01-10T22:01:24.236Z,89.27
2018-01-10T22:03:53.383Z,89.28
2018-01-10T22:06:21.728Z,89.28
2018-01-10T22:08:50.130Z,89.28
2018-01-10T22:11:18.505Z,89.16
2018-01-10T22:13:46.881Z,88.86
2018-01-10T22:16:15.221Z,88.60
2018-01-10T22:18:43.587Z,88.63
2018-01-10T22:21:12.717Z,88.68
2018-01-10T22:23:41.135Z,88.72
2018-01-10T22:26:09.464Z,88.41
2018-01-10T22:28:37.817Z,88.24
2018-01-10T22:31:06.964Z,88.33
2018-01-10T22:33:35.696Z,88.34
2018-01-10T22:36:04.820Z,88.35
2018-01-10T22:38:33.289Z,88.36
2018-01-10T22:41:01.717Z,88.42
2018-01-10T22:43:30.092Z,88.33
2018-01-10T22:45:58.908Z,88.31
2018-01-10T22:48:27.288Z,88.16
2018-01-10T22:50:55.736Z,88.05
2018-01-10T22:53:24.152Z,88.01
2018-01-10T22:55:53.396Z,87.97
2018-01-10T22:58:21.760Z,87.94
2018-01-10T23:00:50.135Z,87.96
2018-01-10T23:03:18.532Z,88.00
2018-01-10T23:05:46.961Z,88.07
2018-01-10T23:08:16.141Z,88.09
2018-01-10T23:10:44.484Z,88.11
2018-01-10T23:13:12.855Z,87.88
2018-01-10T23:15:41.192Z,87.82
2018-01-10T23:18:09.572Z,87.85
2018-01-10T23:20:38.711Z,87.80
2018-01-10T23:23:07.040Z,87.78
2018-01-10T23:25:35.412Z,87.83
2018-01-10T23:28:03.769Z,87.80
2018-01-10T23:30:32.143Z,87.80
2018-01-10T23:33:00.508Z,87.83
2018-01-10T23:35:28.879Z,87.82
2018-01-10T23:37:57.244Z,88.01
2018-01-10T23:40:25.590Z,88.00
2018-01-10T23:42:54.727Z,87.89
2018-01-10T23:45:23.211Z,87.90
2018-01-10T23:47:51.555Z,87.89
2018-01-10T23:50:20.679Z,87.93
2018-01-10T23:52:49.047Z,87.87
2018-01-10T23:55:17.387Z,87.80
2018-01-10T23:57:45.764Z,87.80
